Pagrindinis puslapis
METAR-TAF:

METAR-TAF

Oro uostai :

Izmitas, Turkija

platuma: 40-44N, ilguma: 030-05E, Aukštis: 50 m

Dabartinis oras

Ataskaita buvo paskelbta 26 minutes, ne 13:50 UTC
Vėjas 9 kt iš Šiaurės/Šiaurės Rytų, svyruoja nuo Šiaurės ir Rytų/Šiaurės Rytų
Temperatūra 21°C
Drėgmė 43%
Slėgis 1009 hPa
Matomumas 10 km arba daugiau
nėra debesų žemiau 1500 m ir nėra kamuolinių lietaus debesų

METAR: LTBQ 121350Z 02009KT 350V070 CAVOK 21/08 Q1009 NOSIG

Laikas: 17:16 (14:16 UTC)

Prognozė

Ataskaita buvo paskelbta 3 valandos ir 36 minutes, ne 10:40 UTC
Prognozė galioja nuo 12 metu 12 UTC su 12 metu 21 UTC
Vėjas 2 kt nuo kintamojo kryptimis
Matomumas 10 km arba daugiau
nėra debesų žemiau 1500 m ir nėra kamuolinių lietaus debesų
Laikinai
nuo 12 metu 12 UTC su 12 metu 16 UTC
Vėjas 12 kt iš Šiaurės Rytų

TAF: LTBQ 121040Z 1212/1221 VRB02KT CAVOK TEMPO 1212/1216 04012KT

Orai ataskaitas ir orų prognozės (METAR, TAF).

turimą stotys yra geltonos ir raudonos taškus žemėlapyje.

Perkelti pele per norėdami pamatyti stoties vardą.

Tada spustelėkite, norėdami matyti oro stebėjimo ir prognozės.

Norėdami pakeisti žemėlapį: spustelėkite ant žalios mygtukų su juodo kryžiaus žemyn,; žalią mygtuką su brūkšneliu, jei norite nutolinti; arba žalių rodyklių gretimoms žemėlapius.


METAR-TAF: